sensor_id;sensor_type;location;lat;lon;timestamp;pressure;altitude;pressure_sealevel;temperature
67353;BMP180;54238;52.278;21.056;2022-12-29T00:00:42;100169.20;;;6.92
67353;BMP180;54238;52.278;21.056;2022-12-29T00:03:20;100175.80;;;6.90
67353;BMP180;54238;52.278;21.056;2022-12-29T00:05:56;100176.40;;;6.82
67353;BMP180;54238;52.278;21.056;2022-12-29T00:08:29;100177.80;;;6.80
67353;BMP180;54238;52.278;21.056;2022-12-29T00:11:18;100178.20;;;6.80
67353;BMP180;54238;52.278;21.056;2022-12-29T00:13:49;100172.80;;;6.80
67353;BMP180;54238;52.278;21.056;2022-12-29T00:16:41;100166.00;;;6.88
67353;BMP180;54238;52.278;21.056;2022-12-29T00:19:13;100163.60;;;7.06
67353;BMP180;54238;52.278;21.056;2022-12-29T00:21:59;100166.80;;;7.20
67353;BMP180;54238;52.278;21.056;2022-12-29T00:24:47;100161.60;;;7.20
67353;BMP180;54238;52.278;21.056;2022-12-29T00:27:34;100165.80;;;7.20
67353;BMP180;54238;52.278;21.056;2022-12-29T00:30:22;100157.40;;;7.20
67353;BMP180;54238;52.278;21.056;2022-12-29T00:36:02;100163.00;;;7.10
67353;BMP180;54238;52.278;21.056;2022-12-29T00:41:22;100165.60;;;7.00
67353;BMP180;54238;52.278;21.056;2022-12-29T00:44:12;100166.00;;;6.90
67353;BMP180;54238;52.278;21.056;2022-12-29T00:46:41;100164.60;;;6.90
67353;BMP180;54238;52.278;21.056;2022-12-29T00:49:13;100174.00;;;6.84
67353;BMP180;54238;52.278;21.056;2022-12-29T00:52:04;100170.20;;;6.88
67353;BMP180;54238;52.278;21.056;2022-12-29T00:54:38;100169.40;;;6.90
67353;BMP180;54238;52.278;21.056;2022-12-29T00:57:11;100172.60;;;6.90
67353;BMP180;54238;52.278;21.056;2022-12-29T00:59:42;100166.80;;;7.00
67353;BMP180;54238;52.278;21.056;2022-12-29T01:02:19;100162.80;;;7.00
67353;BMP180;54238;52.278;21.056;2022-12-29T01:04:46;100165.20;;;7.00
67353;BMP180;54238;52.278;21.056;2022-12-29T01:07:18;100159.20;;;7.00
67353;BMP180;54238;52.278;21.056;2022-12-29T01:09:53;100159.60;;;7.00
67353;BMP180;54238;52.278;21.056;2022-12-29T01:12:39;100147.00;;;7.00
67353;BMP180;54238;52.278;21.056;2022-12-29T01:15:16;100142.80;;;7.00
67353;BMP180;54238;52.278;21.056;2022-12-29T01:17:46;100141.20;;;7.00
67353;BMP180;54238;52.278;21.056;2022-12-29T01:20:17;100132.60;;;7.00
67353;BMP180;54238;52.278;21.056;2022-12-29T01:22:47;100128.40;;;6.96
67353;BMP180;54238;52.278;21.056;2022-12-29T01:25:17;100131.20;;;6.90
67353;BMP180;54238;52.278;21.056;2022-12-29T01:27:44;100133.80;;;6.82
67353;BMP180;54238;52.278;21.056;2022-12-29T01:30:14;100127.60;;;6.80
67353;BMP180;54238;52.278;21.056;2022-12-29T01:32:41;100129.20;;;6.80
67353;BMP180;54238;52.278;21.056;2022-12-29T01:35:20;100120.20;;;6.90
67353;BMP180;54238;52.278;21.056;2022-12-29T01:37:52;100118.60;;;6.98
67353;BMP180;54238;52.278;21.056;2022-12-29T01:40:27;100124.20;;;7.10
67353;BMP180;54238;52.278;21.056;2022-12-29T01:42:57;100117.80;;;7.20
67353;BMP180;54238;52.278;21.056;2022-12-29T01:45:24;100112.80;;;7.20
67353;BMP180;54238;52.278;21.056;2022-12-29T01:48:09;100109.80;;;7.10
67353;BMP180;54238;52.278;21.056;2022-12-29T01:51:04;100104.40;;;7.02
67353;BMP180;54238;52.278;21.056;2022-12-29T01:53:36;100100.80;;;7.00
67353;BMP180;54238;52.278;21.056;2022-12-29T01:56:15;100099.00;;;6.90
67353;BMP180;54238;52.278;21.056;2022-12-29T01:58:54;100100.20;;;6.80
67353;BMP180;54238;52.278;21.056;2022-12-29T02:01:23;100098.00;;;6.80
67353;BMP180;54238;52.278;21.056;2022-12-29T02:03:51;100095.60;;;6.70
67353;BMP180;54238;52.278;21.056;2022-12-29T02:06:37;100094.20;;;6.60
67353;BMP180;54238;52.278;21.056;2022-12-29T02:09:11;100095.60;;;6.60
67353;BMP180;54238;52.278;21.056;2022-12-29T02:11:48;100088.80;;;6.56
67353;BMP180;54238;52.278;21.056;2022-12-29T02:14:15;100086.20;;;6.50
67353;BMP180;54238;52.278;21.056;2022-12-29T02:26:15;100104.20;;;6.90
67353;BMP180;54238;52.278;21.056;2022-12-29T02:29:18;100101.00;;;7.00
67353;BMP180;54238;52.278;21.056;2022-12-29T02:38:41;100089.60;;;6.80
67353;BMP180;54238;52.278;21.056;2022-12-29T02:50:18;100104.00;;;6.40
67353;BMP180;54238;52.278;21.056;2022-12-29T02:53:00;100106.40;;;6.36
67353;BMP180;54238;52.278;21.056;2022-12-29T02:55:33;100094.40;;;6.40
67353;BMP180;54238;52.278;21.056;2022-12-29T02:58:26;100104.80;;;6.60
67353;BMP180;54238;52.278;21.056;2022-12-29T03:04:28;100107.40;;;6.60
67353;BMP180;54238;52.278;21.056;2022-12-29T03:16:16;100108.60;;;6.18
67353;BMP180;54238;52.278;21.056;2022-12-29T03:19:42;100107.80;;;6.10
67353;BMP180;54238;52.278;21.056;2022-12-29T03:22:22;100107.00;;;5.98
67353;BMP180;54238;52.278;21.056;2022-12-29T03:25:09;100102.60;;;5.90
67353;BMP180;54238;52.278;21.056;2022-12-29T03:28:07;100092.00;;;5.88
67353;BMP180;54238;52.278;21.056;2022-12-29T03:30:39;100090.80;;;5.80
67353;BMP180;54238;52.278;21.056;2022-12-29T03:33:12;100073.20;;;5.80
67353;BMP180;54238;52.278;21.056;2022-12-29T03:35:44;100055.40;;;5.70
67353;BMP180;54238;52.278;21.056;2022-12-29T03:40:49;100038.00;;;5.60
67353;BMP180;54238;52.278;21.056;2022-12-29T03:43:19;100031.00;;;5.60
67353;BMP180;54238;52.278;21.056;2022-12-29T03:45:48;100024.80;;;5.60
67353;BMP180;54238;52.278;21.056;2022-12-29T03:48:20;100009.40;;;5.54
67353;BMP180;54238;52.278;21.056;2022-12-29T03:50:49;100002.80;;;5.50
67353;BMP180;54238;52.278;21.056;2022-12-29T03:53:21;100003.40;;;5.50
67353;BMP180;54238;52.278;21.056;2022-12-29T03:55:56;99996.40;;;5.40
67353;BMP180;54238;52.278;21.056;2022-12-29T03:58:24;100003.20;;;5.40
67353;BMP180;54238;52.278;21.056;2022-12-29T04:00:56;100040.80;;;5.40
67353;BMP180;54238;52.278;21.056;2022-12-29T04:03:24;100027.40;;;5.40
67353;BMP180;54238;52.278;21.056;2022-12-29T04:05:53;100029.20;;;5.40
67353;BMP180;54238;52.278;21.056;2022-12-29T04:08:23;100020.00;;;5.30
67353;BMP180;54238;52.278;21.056;2022-12-29T04:10:52;100030.40;;;5.30
67353;BMP180;54238;52.278;21.056;2022-12-29T04:13:19;100022.40;;;5.30
67353;BMP180;54238;52.278;21.056;2022-12-29T04:15:47;100009.60;;;5.30
67353;BMP180;54238;52.278;21.056;2022-12-29T04:18:14;100015.00;;;5.20
67353;BMP180;54238;52.278;21.056;2022-12-29T04:20:48;100002.80;;;5.20
67353;BMP180;54238;52.278;21.056;2022-12-29T04:23:38;100020.80;;;5.20
67353;BMP180;54238;52.278;21.056;2022-12-29T04:26:07;100007.20;;;5.20
67353;BMP180;54238;52.278;21.056;2022-12-29T04:28:41;100020.40;;;5.20
67353;BMP180;54238;52.278;21.056;2022-12-29T04:31:13;100024.60;;;5.20
67353;BMP180;54238;52.278;21.056;2022-12-29T04:33:42;100016.00;;;5.20
67353;BMP180;54238;52.278;21.056;2022-12-29T04:36:15;100025.60;;;5.18
67353;BMP180;54238;52.278;21.056;2022-12-29T04:38:42;100010.20;;;5.10
67353;BMP180;54238;52.278;21.056;2022-12-29T04:41:12;99994.60;;;5.10
67353;BMP180;54238;52.278;21.056;2022-12-29T04:43:44;99978.60;;;5.10
67353;BMP180;54238;52.278;21.056;2022-12-29T04:46:13;99981.60;;;5.10
67353;BMP180;54238;52.278;21.056;2022-12-29T04:48:41;99993.40;;;5.10
67353;BMP180;54238;52.278;21.056;2022-12-29T04:51:15;100004.60;;;5.02
67353;BMP180;54238;52.278;21.056;2022-12-29T04:53:42;99990.40;;;5.00
67353;BMP180;54238;52.278;21.056;2022-12-29T04:56:17;99986.20;;;5.00
67353;BMP180;54238;52.278;21.056;2022-12-29T04:58:54;99998.80;;;5.06
67353;BMP180;54238;52.278;21.056;2022-12-29T05:01:26;99993.80;;;5.10
67353;BMP180;54238;52.278;21.056;2022-12-29T05:03:55;99976.80;;;5.20
67353;BMP180;54238;52.278;21.056;2022-12-29T05:06:25;99967.00;;;5.36
67353;BMP180;54238;52.278;21.056;2022-12-29T05:08:55;99975.40;;;5.50
67353;BMP180;54238;52.278;21.056;2022-12-29T05:11:52;99975.20;;;5.62
67353;BMP180;54238;52.278;21.056;2022-12-29T05:14:23;99973.40;;;5.80
67353;BMP180;54238;52.278;21.056;2022-12-29T05:16:53;99970.00;;;5.80
67353;BMP180;54238;52.278;21.056;2022-12-29T05:19:29;99974.00;;;5.80
67353;BMP180;54238;52.278;21.056;2022-12-29T05:21:59;99971.80;;;5.70
67353;BMP180;54238;52.278;21.056;2022-12-29T05:24:31;99971.00;;;5.60
67353;BMP180;54238;52.278;21.056;2022-12-29T05:27:01;99968.20;;;5.54
67353;BMP180;54238;52.278;21.056;2022-12-29T05:29:31;99966.80;;;5.42
67353;BMP180;54238;52.278;21.056;2022-12-29T05:32:09;99958.80;;;5.40
67353;BMP180;54238;52.278;21.056;2022-12-29T05:34:39;99954.00;;;5.30
67353;BMP180;54238;52.278;21.056;2022-12-29T05:37:06;99945.20;;;5.24
67353;BMP180;54238;52.278;21.056;2022-12-29T05:39:38;99954.20;;;5.20
67353;BMP180;54238;52.278;21.056;2022-12-29T05:42:09;99949.40;;;5.10
67353;BMP180;54238;52.278;21.056;2022-12-29T05:44:37;99934.40;;;5.10
67353;BMP180;54238;52.278;21.056;2022-12-29T05:47:07;99936.20;;;5.06
67353;BMP180;54238;52.278;21.056;2022-12-29T05:49:38;99946.60;;;5.00
67353;BMP180;54238;52.278;21.056;2022-12-29T05:52:06;99948.20;;;5.00
67353;BMP180;54238;52.278;21.056;2022-12-29T05:54:43;99938.80;;;5.00
67353;BMP180;54238;52.278;21.056;2022-12-29T05:57:10;99936.80;;;5.00
67353;BMP180;54238;52.278;21.056;2022-12-29T05:59:37;99932.00;;;5.00
67353;BMP180;54238;52.278;21.056;2022-12-29T06:02:06;99927.20;;;5.00
67353;BMP180;54238;52.278;21.056;2022-12-29T06:04:36;99937.00;;;5.00
67353;BMP180;54238;52.278;21.056;2022-12-29T06:07:05;99942.20;;;5.00
67353;BMP180;54238;52.278;21.056;2022-12-29T06:09:32;99939.20;;;5.00
67353;BMP180;54238;52.278;21.056;2022-12-29T06:12:06;99938.00;;;5.00
67353;BMP180;54238;52.278;21.056;2022-12-29T06:14:38;99929.40;;;5.00
67353;BMP180;54238;52.278;21.056;2022-12-29T06:17:06;99924.80;;;5.00
67353;BMP180;54238;52.278;21.056;2022-12-29T06:19:35;99931.20;;;5.00
67353;BMP180;54238;52.278;21.056;2022-12-29T06:22:09;99948.00;;;5.04
67353;BMP180;54238;52.278;21.056;2022-12-29T06:24:39;99946.20;;;5.10
67353;BMP180;54238;52.278;21.056;2022-12-29T06:27:11;99944.40;;;5.10
67353;BMP180;54238;52.278;21.056;2022-12-29T06:29:41;99932.60;;;5.10
67353;BMP180;54238;52.278;21.056;2022-12-29T06:32:09;99941.20;;;5.10
67353;BMP180;54238;52.278;21.056;2022-12-29T06:34:39;99932.60;;;5.10
67353;BMP180;54238;52.278;21.056;2022-12-29T06:37:09;99933.40;;;5.14
67353;BMP180;54238;52.278;21.056;2022-12-29T06:39:36;99938.20;;;5.20
67353;BMP180;54238;52.278;21.056;2022-12-29T06:42:09;99940.00;;;5.20
67353;BMP180;54238;52.278;21.056;2022-12-29T06:44:38;99947.40;;;5.20
67353;BMP180;54238;52.278;21.056;2022-12-29T06:47:05;99951.20;;;5.20
67353;BMP180;54238;52.278;21.056;2022-12-29T06:49:32;99955.00;;;5.24
67353;BMP180;54238;52.278;21.056;2022-12-29T06:52:04;99961.80;;;5.30
67353;BMP180;54238;52.278;21.056;2022-12-29T06:54:36;99957.00;;;5.30
67353;BMP180;54238;52.278;21.056;2022-12-29T06:57:08;99948.00;;;5.30
67353;BMP180;54238;52.278;21.056;2022-12-29T06:59:43;99952.60;;;5.30
67353;BMP180;54238;52.278;21.056;2022-12-29T07:02:10;99948.60;;;5.30
67353;BMP180;54238;52.278;21.056;2022-12-29T07:04:52;99944.00;;;5.30
67353;BMP180;54238;52.278;21.056;2022-12-29T07:07:24;99937.80;;;5.30
67353;BMP180;54238;52.278;21.056;2022-12-29T07:12:27;99940.60;;;5.40
67353;BMP180;54238;52.278;21.056;2022-12-29T07:14:54;99929.20;;;5.40
67353;BMP180;54238;52.278;21.056;2022-12-29T07:17:34;99938.20;;;5.40
67353;BMP180;54238;52.278;21.056;2022-12-29T07:20:05;99934.60;;;5.40
67353;BMP180;54238;52.278;21.056;2022-12-29T07:22:37;99933.00;;;5.40
67353;BMP180;54238;52.278;21.056;2022-12-29T07:25:10;99926.40;;;5.50
67353;BMP180;54238;52.278;21.056;2022-12-29T07:27:37;99920.60;;;5.50
67353;BMP180;54238;52.278;21.056;2022-12-29T07:30:08;99924.20;;;5.50
67353;BMP180;54238;52.278;21.056;2022-12-29T07:32:38;99920.20;;;5.60
67353;BMP180;54238;52.278;21.056;2022-12-29T07:35:07;99910.80;;;5.60
67353;BMP180;54238;52.278;21.056;2022-12-29T07:37:35;99915.40;;;5.60
67353;BMP180;54238;52.278;21.056;2022-12-29T07:40:03;99920.40;;;5.60
67353;BMP180;54238;52.278;21.056;2022-12-29T07:42:31;99926.00;;;5.60
67353;BMP180;54238;52.278;21.056;2022-12-29T07:45:01;99914.20;;;5.62
67353;BMP180;54238;52.278;21.056;2022-12-29T07:47:30;99922.20;;;5.70
67353;BMP180;54238;52.278;21.056;2022-12-29T07:49:58;99925.20;;;5.70
67353;BMP180;54238;52.278;21.056;2022-12-29T07:52:27;99926.20;;;5.70
67353;BMP180;54238;52.278;21.056;2022-12-29T07:54:55;99925.00;;;5.80
67353;BMP180;54238;52.278;21.056;2022-12-29T07:57:26;99923.20;;;5.80
67353;BMP180;54238;52.278;21.056;2022-12-29T07:59:56;99925.40;;;5.84
67353;BMP180;54238;52.278;21.056;2022-12-29T08:02:26;99923.20;;;5.90
67353;BMP180;54238;52.278;21.056;2022-12-29T08:04:53;99915.40;;;5.92
67353;BMP180;54238;52.278;21.056;2022-12-29T08:07:23;99917.60;;;6.00
67353;BMP180;54238;52.278;21.056;2022-12-29T08:09:53;99916.20;;;6.00
67353;BMP180;54238;52.278;21.056;2022-12-29T08:12:22;99902.60;;;6.10
67353;BMP180;54238;52.278;21.056;2022-12-29T08:14:50;99914.20;;;6.36
67353;BMP180;54238;52.278;21.056;2022-12-29T08:17:17;99915.20;;;6.60
67353;BMP180;54238;52.278;21.056;2022-12-29T08:19:44;99915.80;;;6.78
67353;BMP180;54238;52.278;21.056;2022-12-29T08:22:16;99911.00;;;6.86
67353;BMP180;54238;52.278;21.056;2022-12-29T08:24:43;99906.40;;;6.90
67353;BMP180;54238;52.278;21.056;2022-12-29T08:27:10;99904.20;;;6.90
67353;BMP180;54238;52.278;21.056;2022-12-29T08:29:37;99913.60;;;6.90
67353;BMP180;54238;52.278;21.056;2022-12-29T08:32:07;99916.20;;;6.90
67353;BMP180;54238;52.278;21.056;2022-12-29T08:34:34;99920.60;;;6.90
67353;BMP180;54238;52.278;21.056;2022-12-29T08:37:04;99911.80;;;6.90
67353;BMP180;54238;52.278;21.056;2022-12-29T08:39:32;99914.40;;;6.90
67353;BMP180;54238;52.278;21.056;2022-12-29T08:42:01;99920.00;;;6.90
67353;BMP180;54238;52.278;21.056;2022-12-29T08:44:30;99923.20;;;6.92
67353;BMP180;54238;52.278;21.056;2022-12-29T08:46:59;99924.40;;;7.00
67353;BMP180;54238;52.278;21.056;2022-12-29T08:49:27;99930.60;;;7.00
67353;BMP180;54238;52.278;21.056;2022-12-29T08:51:56;99930.20;;;7.10
67353;BMP180;54238;52.278;21.056;2022-12-29T08:54:28;99930.40;;;7.10
67353;BMP180;54238;52.278;21.056;2022-12-29T08:56:55;99927.40;;;7.10
67353;BMP180;54238;52.278;21.056;2022-12-29T08:59:22;99926.40;;;7.10
67353;BMP180;54238;52.278;21.056;2022-12-29T09:01:54;99925.60;;;7.20
67353;BMP180;54238;52.278;21.056;2022-12-29T09:04:23;99928.40;;;7.20
67353;BMP180;54238;52.278;21.056;2022-12-29T09:06:56;99929.20;;;7.20
67353;BMP180;54238;52.278;21.056;2022-12-29T09:09:23;99928.00;;;7.28
67353;BMP180;54238;52.278;21.056;2022-12-29T09:11:50;99927.60;;;7.30
67353;BMP180;54238;52.278;21.056;2022-12-29T09:14:17;99919.40;;;7.30
67353;BMP180;54238;52.278;21.056;2022-12-29T09:16:54;99920.60;;;7.40
67353;BMP180;54238;52.278;21.056;2022-12-29T09:19:42;99915.00;;;7.40
67353;BMP180;54238;52.278;21.056;2022-12-29T09:22:14;99911.80;;;7.40
67353;BMP180;54238;52.278;21.056;2022-12-29T09:24:43;99920.60;;;7.50
67353;BMP180;54238;52.278;21.056;2022-12-29T09:27:13;99910.20;;;7.52
67353;BMP180;54238;52.278;21.056;2022-12-29T09:29:40;99908.80;;;7.60
67353;BMP180;54238;52.278;21.056;2022-12-29T09:32:16;99907.00;;;7.70
67353;BMP180;54238;52.278;21.056;2022-12-29T09:34:46;99902.20;;;7.80
67353;BMP180;54238;52.278;21.056;2022-12-29T09:37:17;99904.00;;;7.80
67353;BMP180;54238;52.278;21.056;2022-12-29T09:39:53;99910.80;;;7.80
67353;BMP180;54238;52.278;21.056;2022-12-29T09:42:42;99913.60;;;7.88
67353;BMP180;54238;52.278;21.056;2022-12-29T09:45:59;99905.00;;;7.90
67353;BMP180;54238;52.278;21.056;2022-12-29T09:48:27;99908.60;;;7.86
67353;BMP180;54238;52.278;21.056;2022-12-29T09:51:05;99908.40;;;7.84
67353;BMP180;54238;52.278;21.056;2022-12-29T09:53:45;99894.80;;;7.90
67353;BMP180;54238;52.278;21.056;2022-12-29T09:56:21;99888.40;;;7.90
67353;BMP180;54238;52.278;21.056;2022-12-29T10:01:49;99899.00;;;8.00
67353;BMP180;54238;52.278;21.056;2022-12-29T10:04:26;99893.60;;;8.00
67353;BMP180;54238;52.278;21.056;2022-12-29T10:07:22;99894.60;;;8.00
67353;BMP180;54238;52.278;21.056;2022-12-29T10:13:01;99873.40;;;8.00
67353;BMP180;54238;52.278;21.056;2022-12-29T10:21:58;99874.60;;;7.90
67353;BMP180;54238;52.278;21.056;2022-12-29T10:24:24;99867.20;;;7.90
67353;BMP180;54238;52.278;21.056;2022-12-29T10:26:59;99859.40;;;7.90
67353;BMP180;54238;52.278;21.056;2022-12-29T10:29:36;99876.00;;;7.92
67353;BMP180;54238;52.278;21.056;2022-12-29T10:32:25;99859.80;;;8.00
67353;BMP180;54238;52.278;21.056;2022-12-29T10:35:10;99867.00;;;8.00
67353;BMP180;54238;52.278;21.056;2022-12-29T10:38:30;99869.00;;;8.00
67353;BMP180;54238;52.278;21.056;2022-12-29T10:43:48;99853.60;;;8.10
67353;BMP180;54238;52.278;21.056;2022-12-29T10:46:33;99859.60;;;8.10
67353;BMP180;54238;52.278;21.056;2022-12-29T10:49:04;99859.80;;;8.12
67353;BMP180;54238;52.278;21.056;2022-12-29T10:51:39;99853.60;;;8.20
67353;BMP180;54238;52.278;21.056;2022-12-29T10:54:23;99847.60;;;8.20
67353;BMP180;54238;52.278;21.056;2022-12-29T10:57:24;99850.40;;;8.30
67353;BMP180;54238;52.278;21.056;2022-12-29T10:59:54;99845.20;;;8.30
67353;BMP180;54238;52.278;21.056;2022-12-29T11:05:28;99838.00;;;8.30
67353;BMP180;54238;52.278;21.056;2022-12-29T11:08:09;99844.00;;;8.38
67353;BMP180;54238;52.278;21.056;2022-12-29T11:10:42;99838.80;;;8.40
67353;BMP180;54238;52.278;21.056;2022-12-29T11:13:24;99841.00;;;8.40
67353;BMP180;54238;52.278;21.056;2022-12-29T11:15:54;99846.20;;;8.44
67353;BMP180;54238;52.278;21.056;2022-12-29T11:21:00;99840.00;;;8.50
67353;BMP180;54238;52.278;21.056;2022-12-29T11:23:42;99841.20;;;8.50
67353;BMP180;54238;52.278;21.056;2022-12-29T11:26:26;99839.00;;;8.50
67353;BMP180;54238;52.278;21.056;2022-12-29T11:29:21;99835.60;;;8.60
67353;BMP180;54238;52.278;21.056;2022-12-29T11:31:57;99836.60;;;8.60
67353;BMP180;54238;52.278;21.056;2022-12-29T11:34:34;99832.80;;;8.70
67353;BMP180;54238;52.278;21.056;2022-12-29T11:37:10;99833.60;;;8.70
67353;BMP180;54238;52.278;21.056;2022-12-29T11:39:58;99846.20;;;8.70
67353;BMP180;54238;52.278;21.056;2022-12-29T11:45:13;99843.80;;;8.70
67353;BMP180;54238;52.278;21.056;2022-12-29T11:47:50;99852.40;;;8.70
67353;BMP180;54238;52.278;21.056;2022-12-29T11:50:32;99845.00;;;8.70
67353;BMP180;54238;52.278;21.056;2022-12-29T11:53:22;99841.00;;;8.70
67353;BMP180;54238;52.278;21.056;2022-12-29T11:56:02;99847.40;;;8.70
67353;BMP180;54238;52.278;21.056;2022-12-29T11:58:36;99849.20;;;8.76
67353;BMP180;54238;52.278;21.056;2022-12-29T12:01:33;99843.80;;;8.80
67353;BMP180;54238;52.278;21.056;2022-12-29T12:04:21;99844.00;;;8.80
67353;BMP180;54238;52.278;21.056;2022-12-29T12:07:12;99839.80;;;8.80
67353;BMP180;54238;52.278;21.056;2022-12-29T12:09:53;99842.20;;;8.82
67353;BMP180;54238;52.278;21.056;2022-12-29T12:12:35;99836.60;;;8.90
67353;BMP180;54238;52.278;21.056;2022-12-29T12:15:38;99832.80;;;8.90
67353;BMP180;54238;52.278;21.056;2022-12-29T12:18:30;99841.20;;;8.90
67353;BMP180;54238;52.278;21.056;2022-12-29T12:21:30;99835.00;;;8.90
67353;BMP180;54238;52.278;21.056;2022-12-29T12:32:46;99829.40;;;9.00
67353;BMP180;54238;52.278;21.056;2022-12-29T12:35:23;99825.00;;;9.00
67353;BMP180;54238;52.278;21.056;2022-12-29T12:54:12;99800.60;;;9.20
67353;BMP180;54238;52.278;21.056;2022-12-29T12:56:32;99797.60;;;9.20
67353;BMP180;54238;52.278;21.056;2022-12-29T13:05:25;99796.80;;;9.30
67353;BMP180;54238;52.278;21.056;2022-12-29T13:17:30;99806.60;;;9.30
67353;BMP180;54238;52.278;21.056;2022-12-29T13:20:27;99807.40;;;9.30
67353;BMP180;54238;52.278;21.056;2022-12-29T13:25:59;99807.40;;;9.38
67353;BMP180;54238;52.278;21.056;2022-12-29T13:37:34;99809.00;;;9.40
67353;BMP180;54238;52.278;21.056;2022-12-29T13:40:15;99812.60;;;9.40
67353;BMP180;54238;52.278;21.056;2022-12-29T13:42:47;99813.40;;;9.40
67353;BMP180;54238;52.278;21.056;2022-12-29T13:45:23;99812.00;;;9.40
67353;BMP180;54238;52.278;21.056;2022-12-29T13:47:56;99811.80;;;9.40
67353;BMP180;54238;52.278;21.056;2022-12-29T13:50:28;99821.20;;;9.40
67353;BMP180;54238;52.278;21.056;2022-12-29T13:56:15;99828.40;;;9.40
67353;BMP180;54238;52.278;21.056;2022-12-29T13:58:58;99826.60;;;9.40
67353;BMP180;54238;52.278;21.056;2022-12-29T14:04:14;99835.80;;;9.40
67353;BMP180;54238;52.278;21.056;2022-12-29T14:06:47;99828.20;;;9.40
67353;BMP180;54238;52.278;21.056;2022-12-29T14:09:52;99834.20;;;9.40
67353;BMP180;54238;52.278;21.056;2022-12-29T14:12:43;99829.80;;;9.40
67353;BMP180;54238;52.278;21.056;2022-12-29T14:17:43;99834.00;;;9.50
67353;BMP180;54238;52.278;21.056;2022-12-29T14:20:22;99831.80;;;9.50
67353;BMP180;54238;52.278;21.056;2022-12-29T14:28:40;99822.20;;;9.50
67353;BMP180;54238;52.278;21.056;2022-12-29T14:36:36;99806.40;;;9.50
67353;BMP180;54238;52.278;21.056;2022-12-29T14:39:40;99810.80;;;9.50
67353;BMP180;54238;52.278;21.056;2022-12-29T14:44:50;99799.60;;;9.50
67353;BMP180;54238;52.278;21.056;2022-12-29T14:47:34;99817.20;;;9.54
67353;BMP180;54238;52.278;21.056;2022-12-29T14:57:52;99830.20;;;9.50
67353;BMP180;54238;52.278;21.056;2022-12-29T15:00:32;99820.40;;;9.56
67353;BMP180;54238;52.278;21.056;2022-12-29T15:03:07;99819.60;;;9.60
67353;BMP180;54238;52.278;21.056;2022-12-29T15:05:52;99818.20;;;9.60
67353;BMP180;54238;52.278;21.056;2022-12-29T15:08:32;99809.60;;;9.58
67353;BMP180;54238;52.278;21.056;2022-12-29T15:11:15;99811.40;;;9.50
67353;BMP180;54238;52.278;21.056;2022-12-29T15:13:49;99827.80;;;9.50
67353;BMP180;54238;52.278;21.056;2022-12-29T15:16:31;99825.00;;;9.50
67353;BMP180;54238;52.278;21.056;2022-12-29T15:19:05;99821.00;;;9.50
67353;BMP180;54238;52.278;21.056;2022-12-29T15:21:47;99826.60;;;9.40
67353;BMP180;54238;52.278;21.056;2022-12-29T15:24:18;99827.20;;;9.40
67353;BMP180;54238;52.278;21.056;2022-12-29T15:26:50;99825.60;;;9.40
67353;BMP180;54238;52.278;21.056;2022-12-29T15:29:45;99825.20;;;9.40
67353;BMP180;54238;52.278;21.056;2022-12-29T15:34:51;99829.00;;;9.40
67353;BMP180;54238;52.278;21.056;2022-12-29T15:37:32;99821.80;;;9.40
67353;BMP180;54238;52.278;21.056;2022-12-29T15:39:59;99828.00;;;9.40
67353;BMP180;54238;52.278;21.056;2022-12-29T15:42:32;99831.20;;;9.40
67353;BMP180;54238;52.278;21.056;2022-12-29T15:45:11;99827.20;;;9.40
67353;BMP180;54238;52.278;21.056;2022-12-29T15:47:42;99819.80;;;9.40
67353;BMP180;54238;52.278;21.056;2022-12-29T15:50:32;99815.60;;;9.34
67353;BMP180;54238;52.278;21.056;2022-12-29T15:53:16;99817.40;;;9.30
67353;BMP180;54238;52.278;21.056;2022-12-29T15:55:57;99821.40;;;9.30
67353;BMP180;54238;52.278;21.056;2022-12-29T15:58:40;99818.40;;;9.30
67353;BMP180;54238;52.278;21.056;2022-12-29T16:01:26;99818.60;;;9.30
67353;BMP180;54238;52.278;21.056;2022-12-29T16:03:59;99820.80;;;9.20
67353;BMP180;54238;52.278;21.056;2022-12-29T16:06:44;99818.40;;;9.20
67353;BMP180;54238;52.278;21.056;2022-12-29T16:09:28;99823.20;;;9.20
67353;BMP180;54238;52.278;21.056;2022-12-29T16:12:20;99823.80;;;9.20
67353;BMP180;54238;52.278;21.056;2022-12-29T16:15:03;99824.40;;;9.20
67353;BMP180;54238;52.278;21.056;2022-12-29T16:17:49;99820.00;;;9.20
67353;BMP180;54238;52.278;21.056;2022-12-29T16:20:43;99824.00;;;9.20
67353;BMP180;54238;52.278;21.056;2022-12-29T16:23:26;99824.20;;;9.20
67353;BMP180;54238;52.278;21.056;2022-12-29T16:25:56;99832.20;;;9.20
67353;BMP180;54238;52.278;21.056;2022-12-29T16:28:38;99829.20;;;9.20
67353;BMP180;54238;52.278;21.056;2022-12-29T16:31:38;99832.60;;;9.20
67353;BMP180;54238;52.278;21.056;2022-12-29T16:34:23;99827.40;;;9.26
67353;BMP180;54238;52.278;21.056;2022-12-29T16:39:38;99833.40;;;9.50
67353;BMP180;54238;52.278;21.056;2022-12-29T16:48:17;99844.40;;;9.70
67353;BMP180;54238;52.278;21.056;2022-12-29T16:50:46;99842.80;;;9.60
67353;BMP180;54238;52.278;21.056;2022-12-29T16:53:27;99839.80;;;9.60
67353;BMP180;54238;52.278;21.056;2022-12-29T16:56:05;99843.00;;;9.54
67353;BMP180;54238;52.278;21.056;2022-12-29T16:58:35;99835.20;;;9.50
67353;BMP180;54238;52.278;21.056;2022-12-29T17:01:05;99839.20;;;9.50
67353;BMP180;54238;52.278;21.056;2022-12-29T17:03:58;99843.20;;;9.40
67353;BMP180;54238;52.278;21.056;2022-12-29T17:06:27;99840.20;;;9.40
67353;BMP180;54238;52.278;21.056;2022-12-29T17:08:56;99845.20;;;9.40
67353;BMP180;54238;52.278;21.056;2022-12-29T17:11:33;99843.40;;;9.40
67353;BMP180;54238;52.278;21.056;2022-12-29T17:14:35;99847.20;;;9.40
67353;BMP180;54238;52.278;21.056;2022-12-29T17:17:16;99848.00;;;9.38
67353;BMP180;54238;52.278;21.056;2022-12-29T17:19:56;99847.80;;;9.38
67353;BMP180;54238;52.278;21.056;2022-12-29T17:22:29;99854.80;;;9.32
67353;BMP180;54238;52.278;21.056;2022-12-29T17:25:00;99848.60;;;9.30
67353;BMP180;54238;52.278;21.056;2022-12-29T17:27:37;99851.60;;;9.30
67353;BMP180;54238;52.278;21.056;2022-12-29T17:30:15;99851.20;;;9.30
67353;BMP180;54238;52.278;21.056;2022-12-29T17:33:00;99855.60;;;9.30
67353;BMP180;54238;52.278;21.056;2022-12-29T17:35:31;99845.20;;;9.30
67353;BMP180;54238;52.278;21.056;2022-12-29T17:38:00;99840.60;;;9.30
67353;BMP180;54238;52.278;21.056;2022-12-29T17:40:32;99842.00;;;9.30